sensor_id;sensor_type;location;lat;lon;timestamp;temperature;humidity
14277;DHT22;7222;57.346;12.150;2022-11-06T00:01:32;11.90;99.90
14277;DHT22;7222;57.346;12.150;2022-11-06T00:03:59;11.90;99.90
14277;DHT22;7222;57.346;12.150;2022-11-06T00:06:26;11.80;99.90
14277;DHT22;7222;57.346;12.150;2022-11-06T00:09:12;11.80;99.90
14277;DHT22;7222;57.346;12.150;2022-11-06T00:11:41;11.90;99.90
14277;DHT22;7222;57.346;12.150;2022-11-06T00:14:08;11.80;99.90
14277;DHT22;7222;57.346;12.150;2022-11-06T00:16:36;11.90;99.90
14277;DHT22;7222;57.346;12.150;2022-11-06T00:19:04;11.90;99.90
14277;DHT22;7222;57.346;12.150;2022-11-06T00:21:32;11.90;99.90
14277;DHT22;7222;57.346;12.150;2022-11-06T00:24:00;11.90;99.90
14277;DHT22;7222;57.346;12.150;2022-11-06T00:26:29;11.90;99.90
14277;DHT22;7222;57.346;12.150;2022-11-06T00:28:58;11.90;99.90
14277;DHT22;7222;57.346;12.150;2022-11-06T00:31:27;11.90;99.90
14277;DHT22;7222;57.346;12.150;2022-11-06T00:33:56;11.80;99.90
14277;DHT22;7222;57.346;12.150;2022-11-06T00:36:25;11.80;99.90
14277;DHT22;7222;57.346;12.150;2022-11-06T00:38:53;11.90;99.90
14277;DHT22;7222;57.346;12.150;2022-11-06T00:41:20;11.90;99.90
14277;DHT22;7222;57.346;12.150;2022-11-06T00:43:48;11.80;99.90
14277;DHT22;7222;57.346;12.150;2022-11-06T00:46:18;11.80;99.90
14277;DHT22;7222;57.346;12.150;2022-11-06T00:48:45;11.90;99.90
14277;DHT22;7222;57.346;12.150;2022-11-06T00:51:14;11.90;99.90
14277;DHT22;7222;57.346;12.150;2022-11-06T00:53:42;11.90;99.90
14277;DHT22;7222;57.346;12.150;2022-11-06T00:56:11;11.90;99.90
14277;DHT22;7222;57.346;12.150;2022-11-06T00:58:39;11.90;99.90
14277;DHT22;7222;57.346;12.150;2022-11-06T01:01:07;12.00;99.90
14277;DHT22;7222;57.346;12.150;2022-11-06T01:03:36;12.00;99.90
14277;DHT22;7222;57.346;12.150;2022-11-06T01:06:05;12.00;99.90
14277;DHT22;7222;57.346;12.150;2022-11-06T01:08:33;12.00;99.90
14277;DHT22;7222;57.346;12.150;2022-11-06T01:11:05;12.10;99.90
14277;DHT22;7222;57.346;12.150;2022-11-06T01:13:33;12.00;99.90
14277;DHT22;7222;57.346;12.150;2022-11-06T01:16:00;12.10;99.90
14277;DHT22;7222;57.346;12.150;2022-11-06T01:18:27;12.10;99.90
14277;DHT22;7222;57.346;12.150;2022-11-06T01:20:56;12.10;99.90
14277;DHT22;7222;57.346;12.150;2022-11-06T01:23:23;12.10;99.90
14277;DHT22;7222;57.346;12.150;2022-11-06T01:25:57;12.10;99.90
14277;DHT22;7222;57.346;12.150;2022-11-06T01:28:24;12.10;99.90
14277;DHT22;7222;57.346;12.150;2022-11-06T01:30:51;12.20;99.90
14277;DHT22;7222;57.346;12.150;2022-11-06T01:33:18;12.10;99.90
14277;DHT22;7222;57.346;12.150;2022-11-06T01:35:46;12.20;99.90
14277;DHT22;7222;57.346;12.150;2022-11-06T01:38:15;12.20;99.90
14277;DHT22;7222;57.346;12.150;2022-11-06T01:40:43;12.10;99.90
14277;DHT22;7222;57.346;12.150;2022-11-06T01:43:14;12.10;99.90
14277;DHT22;7222;57.346;12.150;2022-11-06T01:45:43;12.20;99.90
14277;DHT22;7222;57.346;12.150;2022-11-06T01:48:11;12.20;99.90
14277;DHT22;7222;57.346;12.150;2022-11-06T01:50:41;12.20;99.90
14277;DHT22;7222;57.346;12.150;2022-11-06T01:53:09;12.20;99.90
14277;DHT22;7222;57.346;12.150;2022-11-06T01:55:41;12.30;99.90
14277;DHT22;7222;57.346;12.150;2022-11-06T01:58:11;12.20;99.90
14277;DHT22;7222;57.346;12.150;2022-11-06T02:00:39;12.20;99.90
14277;DHT22;7222;57.346;12.150;2022-11-06T02:03:06;12.20;99.90
14277;DHT22;7222;57.346;12.150;2022-11-06T02:05:34;12.20;99.90
14277;DHT22;7222;57.346;12.150;2022-11-06T02:08:02;12.20;99.90
14277;DHT22;7222;57.346;12.150;2022-11-06T02:10:29;12.20;99.90
14277;DHT22;7222;57.346;12.150;2022-11-06T02:13:16;12.20;99.90
14277;DHT22;7222;57.346;12.150;2022-11-06T02:15:49;12.20;99.90
14277;DHT22;7222;57.346;12.150;2022-11-06T02:18:47;12.20;99.90
14277;DHT22;7222;57.346;12.150;2022-11-06T02:24:39;12.20;99.90
14277;DHT22;7222;57.346;12.150;2022-11-06T02:27:11;12.20;99.90
14277;DHT22;7222;57.346;12.150;2022-11-06T02:29:46;12.20;99.90
14277;DHT22;7222;57.346;12.150;2022-11-06T02:32:18;12.20;99.90
14277;DHT22;7222;57.346;12.150;2022-11-06T02:34:46;12.30;99.90
14277;DHT22;7222;57.346;12.150;2022-11-06T02:37:18;12.20;99.90
14277;DHT22;7222;57.346;12.150;2022-11-06T02:39:47;12.20;99.90
14277;DHT22;7222;57.346;12.150;2022-11-06T02:42:19;12.20;99.90
14277;DHT22;7222;57.346;12.150;2022-11-06T02:44:49;12.20;99.90
14277;DHT22;7222;57.346;12.150;2022-11-06T02:47:18;12.20;99.90
14277;DHT22;7222;57.346;12.150;2022-11-06T02:49:48;12.10;99.90
14277;DHT22;7222;57.346;12.150;2022-11-06T02:52:19;12.00;99.90
14277;DHT22;7222;57.346;12.150;2022-11-06T02:54:53;12.00;99.90
14277;DHT22;7222;57.346;12.150;2022-11-06T02:57:24;12.00;99.90
14277;DHT22;7222;57.346;12.150;2022-11-06T02:59:58;11.90;99.90
14277;DHT22;7222;57.346;12.150;2022-11-06T03:02:31;11.90;99.90
14277;DHT22;7222;57.346;12.150;2022-11-06T03:05:04;11.90;99.90
14277;DHT22;7222;57.346;12.150;2022-11-06T03:07:35;11.80;99.90
14277;DHT22;7222;57.346;12.150;2022-11-06T03:10:04;11.70;99.90
14277;DHT22;7222;57.346;12.150;2022-11-06T03:12:40;11.80;99.90
14277;DHT22;7222;57.346;12.150;2022-11-06T03:15:16;11.70;99.90
14277;DHT22;7222;57.346;12.150;2022-11-06T03:17:48;11.70;99.90
14277;DHT22;7222;57.346;12.150;2022-11-06T03:20:20;11.60;99.90
14277;DHT22;7222;57.346;12.150;2022-11-06T03:22:54;11.60;99.90
14277;DHT22;7222;57.346;12.150;2022-11-06T03:25:24;11.60;99.90
14277;DHT22;7222;57.346;12.150;2022-11-06T03:28:00;11.60;99.90
14277;DHT22;7222;57.346;12.150;2022-11-06T03:30:30;11.50;99.90
14277;DHT22;7222;57.346;12.150;2022-11-06T03:33:01;11.50;99.90
14277;DHT22;7222;57.346;12.150;2022-11-06T03:35:34;11.50;99.90
14277;DHT22;7222;57.346;12.150;2022-11-06T03:38:08;11.50;99.90
14277;DHT22;7222;57.346;12.150;2022-11-06T03:40:40;11.50;99.90
14277;DHT22;7222;57.346;12.150;2022-11-06T03:43:12;11.40;99.90
14277;DHT22;7222;57.346;12.150;2022-11-06T03:45:42;11.40;99.90
14277;DHT22;7222;57.346;12.150;2022-11-06T03:48:12;11.40;99.90
14277;DHT22;7222;57.346;12.150;2022-11-06T03:50:45;11.40;99.90
14277;DHT22;7222;57.346;12.150;2022-11-06T03:53:16;11.40;99.90
14277;DHT22;7222;57.346;12.150;2022-11-06T03:55:49;11.40;99.90
14277;DHT22;7222;57.346;12.150;2022-11-06T03:58:22;11.40;99.90
14277;DHT22;7222;57.346;12.150;2022-11-06T04:00:50;11.40;99.90
14277;DHT22;7222;57.346;12.150;2022-11-06T04:03:22;11.40;99.90
14277;DHT22;7222;57.346;12.150;2022-11-06T04:05:55;11.40;99.90
14277;DHT22;7222;57.346;12.150;2022-11-06T04:08:26;11.40;99.90
14277;DHT22;7222;57.346;12.150;2022-11-06T04:11:15;11.40;99.90
14277;DHT22;7222;57.346;12.150;2022-11-06T04:14:04;11.40;99.90
14277;DHT22;7222;57.346;12.150;2022-11-06T04:16:34;11.50;99.90
14277;DHT22;7222;57.346;12.150;2022-11-06T04:19:05;11.50;99.90
14277;DHT22;7222;57.346;12.150;2022-11-06T04:21:46;11.50;99.90
14277;DHT22;7222;57.346;12.150;2022-11-06T04:24:22;11.40;99.90
14277;DHT22;7222;57.346;12.150;2022-11-06T04:27:27;11.40;99.90
14277;DHT22;7222;57.346;12.150;2022-11-06T04:30:03;11.40;99.90
14277;DHT22;7222;57.346;12.150;2022-11-06T04:35:29;11.50;99.90
14277;DHT22;7222;57.346;12.150;2022-11-06T04:38:01;11.50;99.90
14277;DHT22;7222;57.346;12.150;2022-11-06T04:40:34;11.50;99.90
14277;DHT22;7222;57.346;12.150;2022-11-06T04:43:05;11.50;99.90
14277;DHT22;7222;57.346;12.150;2022-11-06T04:45:37;11.50;99.90
14277;DHT22;7222;57.346;12.150;2022-11-06T04:48:06;11.50;99.90
14277;DHT22;7222;57.346;12.150;2022-11-06T04:50:37;11.40;99.90
14277;DHT22;7222;57.346;12.150;2022-11-06T04:53:06;11.40;99.90
14277;DHT22;7222;57.346;12.150;2022-11-06T04:55:43;11.40;99.90
14277;DHT22;7222;57.346;12.150;2022-11-06T04:58:11;11.40;99.90
14277;DHT22;7222;57.346;12.150;2022-11-06T05:00:43;11.30;99.90
14277;DHT22;7222;57.346;12.150;2022-11-06T05:03:11;11.20;99.90
14277;DHT22;7222;57.346;12.150;2022-11-06T05:05:38;11.20;99.90
14277;DHT22;7222;57.346;12.150;2022-11-06T05:08:05;11.10;99.90
14277;DHT22;7222;57.346;12.150;2022-11-06T05:10:32;11.20;99.90
14277;DHT22;7222;57.346;12.150;2022-11-06T05:12:59;11.10;99.90
14277;DHT22;7222;57.346;12.150;2022-11-06T05:15:26;11.10;99.90
14277;DHT22;7222;57.346;12.150;2022-11-06T05:17:56;11.10;99.90
14277;DHT22;7222;57.346;12.150;2022-11-06T05:20:23;11.00;99.90
14277;DHT22;7222;57.346;12.150;2022-11-06T05:22:50;11.00;99.90
14277;DHT22;7222;57.346;12.150;2022-11-06T05:25:27;11.00;99.90
14277;DHT22;7222;57.346;12.150;2022-11-06T05:27:54;11.00;99.90
14277;DHT22;7222;57.346;12.150;2022-11-06T05:30:22;11.00;99.90
14277;DHT22;7222;57.346;12.150;2022-11-06T05:32:49;11.00;99.90
14277;DHT22;7222;57.346;12.150;2022-11-06T05:35:18;11.00;99.90
14277;DHT22;7222;57.346;12.150;2022-11-06T05:37:46;11.00;99.90
14277;DHT22;7222;57.346;12.150;2022-11-06T05:40:13;11.00;99.90
14277;DHT22;7222;57.346;12.150;2022-11-06T05:42:41;11.00;99.90
14277;DHT22;7222;57.346;12.150;2022-11-06T05:45:10;11.00;99.90
14277;DHT22;7222;57.346;12.150;2022-11-06T05:47:39;11.00;99.90
14277;DHT22;7222;57.346;12.150;2022-11-06T05:50:07;11.00;99.90
14277;DHT22;7222;57.346;12.150;2022-11-06T05:52:36;11.00;99.90
14277;DHT22;7222;57.346;12.150;2022-11-06T05:55:03;11.00;99.90
14277;DHT22;7222;57.346;12.150;2022-11-06T05:57:30;11.00;99.90
14277;DHT22;7222;57.346;12.150;2022-11-06T05:59:57;11.00;99.90
14277;DHT22;7222;57.346;12.150;2022-11-06T06:02:24;11.00;99.90
14277;DHT22;7222;57.346;12.150;2022-11-06T06:04:51;11.00;99.90
14277;DHT22;7222;57.346;12.150;2022-11-06T06:07:18;11.00;99.90
14277;DHT22;7222;57.346;12.150;2022-11-06T06:09:47;11.00;99.90
14277;DHT22;7222;57.346;12.150;2022-11-06T06:12:14;11.00;99.90
14277;DHT22;7222;57.346;12.150;2022-11-06T06:14:41;11.00;99.90
14277;DHT22;7222;57.346;12.150;2022-11-06T06:17:08;11.00;99.90
14277;DHT22;7222;57.346;12.150;2022-11-06T06:19:35;11.00;99.90
14277;DHT22;7222;57.346;12.150;2022-11-06T06:22:02;11.00;99.90
14277;DHT22;7222;57.346;12.150;2022-11-06T06:24:29;11.00;99.90
14277;DHT22;7222;57.346;12.150;2022-11-06T06:26:57;11.00;99.90
14277;DHT22;7222;57.346;12.150;2022-11-06T06:29:24;11.00;99.90
14277;DHT22;7222;57.346;12.150;2022-11-06T06:31:52;11.00;99.90
14277;DHT22;7222;57.346;12.150;2022-11-06T06:34:19;11.00;99.90
14277;DHT22;7222;57.346;12.150;2022-11-06T06:36:48;11.00;99.90
14277;DHT22;7222;57.346;12.150;2022-11-06T06:39:16;11.00;99.90
14277;DHT22;7222;57.346;12.150;2022-11-06T06:41:45;11.10;99.90
14277;DHT22;7222;57.346;12.150;2022-11-06T06:44:14;11.10;99.90
14277;DHT22;7222;57.346;12.150;2022-11-06T06:46:41;11.20;99.90
14277;DHT22;7222;57.346;12.150;2022-11-06T06:49:08;11.20;99.90
14277;DHT22;7222;57.346;12.150;2022-11-06T06:51:35;11.30;99.90
14277;DHT22;7222;57.346;12.150;2022-11-06T06:54:03;11.30;99.90
14277;DHT22;7222;57.346;12.150;2022-11-06T06:56:30;11.30;99.90
14277;DHT22;7222;57.346;12.150;2022-11-06T06:58:56;11.30;99.90
14277;DHT22;7222;57.346;12.150;2022-11-06T07:01:25;11.30;99.90
14277;DHT22;7222;57.346;12.150;2022-11-06T07:03:52;11.30;99.90
14277;DHT22;7222;57.346;12.150;2022-11-06T07:06:19;11.30;99.90
14277;DHT22;7222;57.346;12.150;2022-11-06T07:08:46;11.40;99.90
14277;DHT22;7222;57.346;12.150;2022-11-06T07:11:13;11.40;99.90
14277;DHT22;7222;57.346;12.150;2022-11-06T07:13:40;11.30;99.90
14277;DHT22;7222;57.346;12.150;2022-11-06T07:16:08;11.40;99.90
14277;DHT22;7222;57.346;12.150;2022-11-06T07:18:38;11.40;99.90
14277;DHT22;7222;57.346;12.150;2022-11-06T07:21:06;11.50;99.90
14277;DHT22;7222;57.346;12.150;2022-11-06T07:23:34;11.50;99.90
14277;DHT22;7222;57.346;12.150;2022-11-06T07:26:02;11.50;99.90
14277;DHT22;7222;57.346;12.150;2022-11-06T07:28:29;11.60;99.90
14277;DHT22;7222;57.346;12.150;2022-11-06T07:31:00;11.60;99.90
14277;DHT22;7222;57.346;12.150;2022-11-06T07:33:28;11.70;99.90
14277;DHT22;7222;57.346;12.150;2022-11-06T07:36:01;11.70;99.90
14277;DHT22;7222;57.346;12.150;2022-11-06T07:38:28;11.80;99.90
14277;DHT22;7222;57.346;12.150;2022-11-06T07:40:55;11.70;99.90
14277;DHT22;7222;57.346;12.150;2022-11-06T07:43:26;11.80;99.90
14277;DHT22;7222;57.346;12.150;2022-11-06T07:45:53;11.80;99.90
14277;DHT22;7222;57.346;12.150;2022-11-06T07:48:20;11.80;99.90
14277;DHT22;7222;57.346;12.150;2022-11-06T07:50:47;11.90;99.90
14277;DHT22;7222;57.346;12.150;2022-11-06T07:53:15;11.90;99.90
14277;DHT22;7222;57.346;12.150;2022-11-06T07:55:47;11.90;99.90
14277;DHT22;7222;57.346;12.150;2022-11-06T07:58:14;12.00;99.90
14277;DHT22;7222;57.346;12.150;2022-11-06T08:00:45;12.00;99.90
14277;DHT22;7222;57.346;12.150;2022-11-06T08:03:12;12.00;99.90
14277;DHT22;7222;57.346;12.150;2022-11-06T08:05:39;12.00;99.90
14277;DHT22;7222;57.346;12.150;2022-11-06T08:08:06;12.00;99.90
14277;DHT22;7222;57.346;12.150;2022-11-06T08:10:35;12.00;99.90
14277;DHT22;7222;57.346;12.150;2022-11-06T08:13:05;12.10;99.90
14277;DHT22;7222;57.346;12.150;2022-11-06T08:15:32;12.10;99.90
14277;DHT22;7222;57.346;12.150;2022-11-06T08:17:59;12.20;99.90
14277;DHT22;7222;57.346;12.150;2022-11-06T08:20:26;12.20;99.90
14277;DHT22;7222;57.346;12.150;2022-11-06T08:22:57;12.20;99.90
14277;DHT22;7222;57.346;12.150;2022-11-06T08:25:24;12.20;99.90
14277;DHT22;7222;57.346;12.150;2022-11-06T08:27:55;12.20;99.90
14277;DHT22;7222;57.346;12.150;2022-11-06T08:30:22;12.30;99.90
14277;DHT22;7222;57.346;12.150;2022-11-06T08:32:49;12.30;99.90
14277;DHT22;7222;57.346;12.150;2022-11-06T08:35:17;12.30;99.90
14277;DHT22;7222;57.346;12.150;2022-11-06T08:37:44;12.30;99.90
14277;DHT22;7222;57.346;12.150;2022-11-06T08:40:11;12.40;99.90
14277;DHT22;7222;57.346;12.150;2022-11-06T08:42:38;12.40;99.90
14277;DHT22;7222;57.346;12.150;2022-11-06T08:45:08;12.40;99.90
14277;DHT22;7222;57.346;12.150;2022-11-06T08:47:35;12.40;99.90
14277;DHT22;7222;57.346;12.150;2022-11-06T08:50:02;12.40;99.90
14277;DHT22;7222;57.346;12.150;2022-11-06T08:52:29;12.40;99.90
14277;DHT22;7222;57.346;12.150;2022-11-06T08:54:56;12.40;99.90
14277;DHT22;7222;57.346;12.150;2022-11-06T08:57:23;12.50;99.90
14277;DHT22;7222;57.346;12.150;2022-11-06T08:59:51;12.50;99.90
14277;DHT22;7222;57.346;12.150;2022-11-06T09:02:19;12.50;99.90
14277;DHT22;7222;57.346;12.150;2022-11-06T09:04:46;12.50;99.90
14277;DHT22;7222;57.346;12.150;2022-11-06T09:07:14;12.60;99.90
14277;DHT22;7222;57.346;12.150;2022-11-06T09:09:41;12.60;99.90
14277;DHT22;7222;57.346;12.150;2022-11-06T09:12:08;12.70;99.90
14277;DHT22;7222;57.346;12.150;2022-11-06T09:14:35;12.70;99.90
14277;DHT22;7222;57.346;12.150;2022-11-06T09:17:04;12.70;99.90
14277;DHT22;7222;57.346;12.150;2022-11-06T09:19:32;12.70;99.90
14277;DHT22;7222;57.346;12.150;2022-11-06T09:21:59;12.70;99.90
14277;DHT22;7222;57.346;12.150;2022-11-06T09:24:28;12.70;99.90
14277;DHT22;7222;57.346;12.150;2022-11-06T09:26:55;12.80;99.90
14277;DHT22;7222;57.346;12.150;2022-11-06T09:29:22;12.80;99.90
14277;DHT22;7222;57.346;12.150;2022-11-06T09:31:49;12.80;99.90
14277;DHT22;7222;57.346;12.150;2022-11-06T09:34:16;12.80;99.90
14277;DHT22;7222;57.346;12.150;2022-11-06T09:36:44;12.80;99.90
14277;DHT22;7222;57.346;12.150;2022-11-06T09:39:11;12.80;99.90
14277;DHT22;7222;57.346;12.150;2022-11-06T09:41:46;12.80;99.90
14277;DHT22;7222;57.346;12.150;2022-11-06T09:44:25;12.80;99.90
14277;DHT22;7222;57.346;12.150;2022-11-06T09:46:57;12.80;99.90
14277;DHT22;7222;57.346;12.150;2022-11-06T09:49:29;12.80;99.90
14277;DHT22;7222;57.346;12.150;2022-11-06T09:52:02;12.80;99.90
14277;DHT22;7222;57.346;12.150;2022-11-06T09:54:36;12.80;99.90
14277;DHT22;7222;57.346;12.150;2022-11-06T09:57:08;12.80;99.90
14277;DHT22;7222;57.346;12.150;2022-11-06T09:59:37;12.80;99.90
14277;DHT22;7222;57.346;12.150;2022-11-06T10:02:18;12.80;99.90
14277;DHT22;7222;57.346;12.150;2022-11-06T10:04:50;12.80;99.90
14277;DHT22;7222;57.346;12.150;2022-11-06T10:07:26;12.80;99.90
14277;DHT22;7222;57.346;12.150;2022-11-06T10:09:53;12.80;99.90
14277;DHT22;7222;57.346;12.150;2022-11-06T10:12:27;12.80;99.90
14277;DHT22;7222;57.346;12.150;2022-11-06T10:15:05;12.80;99.90
14277;DHT22;7222;57.346;12.150;2022-11-06T10:17:42;12.80;99.90
14277;DHT22;7222;57.346;12.150;2022-11-06T10:20:17;12.80;99.90
14277;DHT22;7222;57.346;12.150;2022-11-06T10:22:52;12.80;99.90
14277;DHT22;7222;57.346;12.150;2022-11-06T10:25:43;12.80;99.90
14277;DHT22;7222;57.346;12.150;2022-11-06T10:28:21;12.80;99.90
14277;DHT22;7222;57.346;12.150;2022-11-06T10:30:56;12.80;99.90
14277;DHT22;7222;57.346;12.150;2022-11-06T10:33:36;12.80;99.90
14277;DHT22;7222;57.346;12.150;2022-11-06T10:36:08;12.80;99.90
14277;DHT22;7222;57.346;12.150;2022-11-06T10:38:40;12.90;99.90
14277;DHT22;7222;57.346;12.150;2022-11-06T10:41:16;12.90;99.90
14277;DHT22;7222;57.346;12.150;2022-11-06T10:43:47;12.90;99.90
14277;DHT22;7222;57.346;12.150;2022-11-06T10:46:19;12.90;99.90
14277;DHT22;7222;57.346;12.150;2022-11-06T10:48:54;12.90;99.90
14277;DHT22;7222;57.346;12.150;2022-11-06T10:54:40;12.90;99.90
14277;DHT22;7222;57.346;12.150;2022-11-06T10:57:18;12.90;99.90
14277;DHT22;7222;57.346;12.150;2022-11-06T10:59:47;12.90;99.90
14277;DHT22;7222;57.346;12.150;2022-11-06T11:02:23;12.90;99.90
14277;DHT22;7222;57.346;12.150;2022-11-06T11:04:50;13.00;99.90
14277;DHT22;7222;57.346;12.150;2022-11-06T11:07:17;12.90;99.90
14277;DHT22;7222;57.346;12.150;2022-11-06T11:09:46;12.90;99.90
14277;DHT22;7222;57.346;12.150;2022-11-06T11:12:22;12.80;99.90
14277;DHT22;7222;57.346;12.150;2022-11-06T11:15:11;12.80;99.90
14277;DHT22;7222;57.346;12.150;2022-11-06T11:17:39;12.90;99.90
14277;DHT22;7222;57.346;12.150;2022-11-06T11:20:28;12.90;99.90
14277;DHT22;7222;57.346;12.150;2022-11-06T11:23:06;12.90;99.90
14277;DHT22;7222;57.346;12.150;2022-11-06T11:25:41;12.90;99.90
14277;DHT22;7222;57.346;12.150;2022-11-06T11:28:21;13.00;99.90
14277;DHT22;7222;57.346;12.150;2022-11-06T11:30:53;13.10;99.90
14277;DHT22;7222;57.346;12.150;2022-11-06T11:33:24;13.10;99.90
14277;DHT22;7222;57.346;12.150;2022-11-06T11:35:53;13.30;99.90
14277;DHT22;7222;57.346;12.150;2022-11-06T11:38:20;13.30;99.90
14277;DHT22;7222;57.346;12.150;2022-11-06T11:40:49;13.30;99.90
14277;DHT22;7222;57.346;12.150;2022-11-06T11:43:25;13.30;99.90
14277;DHT22;7222;57.346;12.150;2022-11-06T11:46:14;13.30;99.90
14277;DHT22;7222;57.346;12.150;2022-11-06T11:48:45;13.30;99.90
14277;DHT22;7222;57.346;12.150;2022-11-06T11:51:21;13.30;99.90
14277;DHT22;7222;57.346;12.150;2022-11-06T11:53:50;13.30;99.90
14277;DHT22;7222;57.346;12.150;2022-11-06T11:56:19;13.30;99.90
14277;DHT22;7222;57.346;12.150;2022-11-06T11:58:51;13.30;99.90
14277;DHT22;7222;57.346;12.150;2022-11-06T12:01:20;13.30;99.90
14277;DHT22;7222;57.346;12.150;2022-11-06T12:03:56;13.30;99.90
14277;DHT22;7222;57.346;12.150;2022-11-06T12:06:23;13.40;99.90
14277;DHT22;7222;57.346;12.150;2022-11-06T12:08:52;13.40;99.90
14277;DHT22;7222;57.346;12.150;2022-11-06T12:11:24;13.40;99.90
14277;DHT22;7222;57.346;12.150;2022-11-06T12:14:22;13.50;99.90
14277;DHT22;7222;57.346;12.150;2022-11-06T12:16:52;13.60;99.90
14277;DHT22;7222;57.346;12.150;2022-11-06T12:19:21;13.60;99.90
14277;DHT22;7222;57.346;12.150;2022-11-06T12:21:53;13.60;99.90
14277;DHT22;7222;57.346;12.150;2022-11-06T12:24:23;13.50;99.90
14277;DHT22;7222;57.346;12.150;2022-11-06T12:26:55;13.50;99.90
14277;DHT22;7222;57.346;12.150;2022-11-06T12:29:27;13.40;99.90
14277;DHT22;7222;57.346;12.150;2022-11-06T12:31:59;13.30;99.90
14277;DHT22;7222;57.346;12.150;2022-11-06T12:34:33;13.30;99.90
14277;DHT22;7222;57.346;12.150;2022-11-06T12:37:18;13.30;99.90
14277;DHT22;7222;57.346;12.150;2022-11-06T12:39:51;13.20;99.90
14277;DHT22;7222;57.346;12.150;2022-11-06T12:42:24;13.30;99.90
14277;DHT22;7222;57.346;12.150;2022-11-06T12:44:53;13.30;99.90
14277;DHT22;7222;57.346;12.150;2022-11-06T12:47:29;13.20;99.90
14277;DHT22;7222;57.346;12.150;2022-11-06T12:50:18;13.20;99.90
14277;DHT22;7222;57.346;12.150;2022-11-06T12:55:51;13.20;99.90
14277;DHT22;7222;57.346;12.150;2022-11-06T12:58:36;13.30;99.90
14277;DHT22;7222;57.346;12.150;2022-11-06T13:01:14;13.30;99.90
14277;DHT22;7222;57.346;12.150;2022-11-06T13:04:05;13.20;99.90
14277;DHT22;7222;57.346;12.150;2022-11-06T13:06:58;13.30;99.90
14277;DHT22;7222;57.346;12.150;2022-11-06T13:09:31;13.30;99.90
14277;DHT22;7222;57.346;12.150;2022-11-06T13:12:05;13.30;99.90
14277;DHT22;7222;57.346;12.150;2022-11-06T13:14:38;13.30;99.90
14277;DHT22;7222;57.346;12.150;2022-11-06T13:17:12;13.30;99.90
14277;DHT22;7222;57.346;12.150;2022-11-06T13:19:44;13.30;99.90
14277;DHT22;7222;57.346;12.150;2022-11-06T13:22:20;13.30;99.90
14277;DHT22;7222;57.346;12.150;2022-11-06T13:24:53;13.30;99.90
14277;DHT22;7222;57.346;12.150;2022-11-06T13:27:30;13.30;99.90
14277;DHT22;7222;57.346;12.150;2022-11-06T13:30:04;13.20;99.90
14277;DHT22;7222;57.346;12.150;2022-11-06T13:32:33;13.20;99.90
14277;DHT22;7222;57.346;12.150;2022-11-06T13:35:02;13.20;99.90
14277;DHT22;7222;57.346;12.150;2022-11-06T13:37:38;13.20;99.90
14277;DHT22;7222;57.346;12.150;2022-11-06T13:40:17;13.20;99.90
14277;DHT22;7222;57.346;12.150;2022-11-06T13:42:49;13.20;99.90
14277;DHT22;7222;57.346;12.150;2022-11-06T13:45:19;13.20;99.90
14277;DHT22;7222;57.346;12.150;2022-11-06T13:47:56;13.20;99.90
14277;DHT22;7222;57.346;12.150;2022-11-06T13:50:29;13.20;99.90
14277;DHT22;7222;57.346;12.150;2022-11-06T13:53:01;13.10;99.90
14277;DHT22;7222;57.346;12.150;2022-11-06T13:55:38;13.10;99.90
14277;DHT22;7222;57.346;12.150;2022-11-06T13:58:23;13.10;99.90
14277;DHT22;7222;57.346;12.150;2022-11-06T14:01:02;13.00;99.90
14277;DHT22;7222;57.346;12.150;2022-11-06T14:06:50;13.00;99.90
14277;DHT22;7222;57.346;12.150;2022-11-06T14:09:20;12.90;99.90
14277;DHT22;7222;57.346;12.150;2022-11-06T14:11:52;13.00;99.90
14277;DHT22;7222;57.346;12.150;2022-11-06T14:14:24;13.00;99.90
14277;DHT22;7222;57.346;12.150;2022-11-06T14:17:12;13.00;99.90
14277;DHT22;7222;57.346;12.150;2022-11-06T14:19:40;13.00;99.90
14277;DHT22;7222;57.346;12.150;2022-11-06T14:22:24;12.90;99.90
14277;DHT22;7222;57.346;12.150;2022-11-06T14:24:52;13.00;99.90
14277;DHT22;7222;57.346;12.150;2022-11-06T14:30:42;12.90;99.90
14277;DHT22;7222;57.346;12.150;2022-11-06T14:36:27;12.80;99.90
14277;DHT22;7222;57.346;12.150;2022-11-06T14:38:54;12.80;99.90
14277;DHT22;7222;57.346;12.150;2022-11-06T14:41:56;12.80;99.90
14277;DHT22;7222;57.346;12.150;2022-11-06T14:44:42;12.80;99.90
14277;DHT22;7222;57.346;12.150;2022-11-06T14:47:33;12.80;99.90
14277;DHT22;7222;57.346;12.150;2022-11-06T14:50:06;12.80;99.90
14277;DHT22;7222;57.346;12.150;2022-11-06T14:52:41;12.80;99.90
14277;DHT22;7222;57.346;12.150;2022-11-06T14:55:23;12.80;99.90
14277;DHT22;7222;57.346;12.150;2022-11-06T14:57:52;12.90;99.90
14277;DHT22;7222;57.346;12.150;2022-11-06T15:00:35;12.80;99.90
14277;DHT22;7222;57.346;12.150;2022-11-06T15:03:05;12.90;99.90
14277;DHT22;7222;57.346;12.150;2022-11-06T15:05:43;12.80;99.90
14277;DHT22;7222;57.346;12.150;2022-11-06T15:08:10;12.80;99.90
14277;DHT22;7222;57.346;12.150;2022-11-06T15:10:48;12.80;99.90
14277;DHT22;7222;57.346;12.150;2022-11-06T15:13:24;12.80;99.90
14277;DHT22;7222;57.346;12.150;2022-11-06T15:15:54;12.80;99.90
14277;DHT22;7222;57.346;12.150;2022-11-06T15:18:24;12.80;99.90
14277;DHT22;7222;57.346;12.150;2022-11-06T15:20:55;12.80;99.90
14277;DHT22;7222;57.346;12.150;2022-11-06T15:23:24;12.70;99.90
14277;DHT22;7222;57.346;12.150;2022-11-06T15:26:03;12.70;99.90
14277;DHT22;7222;57.346;12.150;2022-11-06T15:28:41;12.70;99.90
14277;DHT22;7222;57.346;12.150;2022-11-06T15:31:13;12.60;99.90
14277;DHT22;7222;57.346;12.150;2022-11-06T15:33:50;12.60;99.90
14277;DHT22;7222;57.346;12.150;2022-11-06T15:36:21;12.60;99.90
14277;DHT22;7222;57.346;12.150;2022-11-06T15:38:49;12.60;99.90
14277;DHT22;7222;57.346;12.150;2022-11-06T15:41:18;12.60;99.90
14277;DHT22;7222;57.346;12.150;2022-11-06T15:43:49;12.60;99.90
14277;DHT22;7222;57.346;12.150;2022-11-06T15:46:20;12.60;99.90
14277;DHT22;7222;57.346;12.150;2022-11-06T15:48:48;12.50;99.90
14277;DHT22;7222;57.346;12.150;2022-11-06T15:51:37;12.60;99.90
14277;DHT22;7222;57.346;12.150;2022-11-06T15:54:05;12.60;99.90
14277;DHT22;7222;57.346;12.150;2022-11-06T15:56:33;12.60;99.90
14277;DHT22;7222;57.346;12.150;2022-11-06T15:59:09;12.60;99.90
14277;DHT22;7222;57.346;12.150;2022-11-06T16:01:37;12.60;99.90
14277;DHT22;7222;57.346;12.150;2022-11-06T16:04:08;12.50;99.90
14277;DHT22;7222;57.346;12.150;2022-11-06T16:06:38;12.60;99.90
14277;DHT22;7222;57.346;12.150;2022-11-06T16:09:07;12.60;99.90
14277;DHT22;7222;57.346;12.150;2022-11-06T16:11:36;12.60;99.90
14277;DHT22;7222;57.346;12.150;2022-11-06T16:14:03;12.60;99.90
14277;DHT22;7222;57.346;12.150;2022-11-06T16:16:37;12.60;99.90
14277;DHT22;7222;57.346;12.150;2022-11-06T16:19:15;12.60;99.90